Airfield :
LOGIN :

Register | Disclaimer

   EN    FR    IT 

 










Legend :    VFR   Marginal VFR   IFR   Intensive IFR   Very Intensive IFR
Visi :
Ceiling :
>= 8 km
>= 3000ft
5 to 8 km
1000 to 3000 ft
1500m to 5 km
500 to 1000 ft
800 to 1500m
200 to 500 ft
< 800m
< 200 ft
Symbols :   Thunderstorms  Fog  Heavy snow  Heavy precipitations  Wind > 20 kt
SIGMETs :     Misc.  Thunderstorms  Icing  Turbulence  Mountain Waves  Volcanic Ashes






- Airport Elevation : 628 ft
- IATA code : CMR


LFGA - Colmar-Houssen

CURRENT METAR :
  • 231500Z AUTO 20018G30KT 9999 BKN056 BKN150 BKN190 16/06 Q1022

EXPIRED METARs :
  • 231430Z AUTO 19015KT CAVOK 17/07 Q1022
  • 231400Z AUTO 19018KT 9999 FEW048 OVC060 17/07 Q1022
  • 231330Z AUTO 20016KT 170V230 9999 BKN044 OVC050 16/07 Q1022
  • 231300Z AUTO 18015KT 150V210 9999 BKN045 OVC052 16/06 Q1022
  • 231230Z AUTO 18014G25KT 140V210 9999 BKN048 OVC056 16/06 Q1023

TAF N/A



MET'MAP, your aeronautical weather chart ! - Copyright ORBIFLY December 2007 - Disclaimer

ORBIFLY MET'MAP TEAM :

Programming & Development : Alexandra Zaïnal
Concept & original design : Baudouin d'Aumeries
Assistance for programming : Marc-Olivier Méhu
Technical & hardware support : Manuel Goepfert

Contact : metmap@orbifly.com




SOURCES & CREDITS :

   NOAA